PWSweather.com
Personal Weather Stations
Station Observations
KOHAVON11
Long Road Station, Avon, OH 44011

Long Road StationAvon, OH 44011

Lat: 41.437, Lon: -82.0477

Elevation: 686

Station Type: Davis Vantage Pro2

http://www.avon-weather.com

High Low Average
Temperature 23.6°F-4.7°C 8.5°F-13.1°C 14.5°F-9.7°C
Dew Point 15.2°F-9.3°C 2.5°F-16.4°C 8.6°F-13.0°C
Winds 8.0 mph 12.9 kmh Calm Calm 2.0 mph S3.2 kmh S
Wind Gusts 10.0 mph16.1 kmh -- 5.0 mph8.0 kmh
Humidity 84% 67% 77%
Pressure 30.75 in1041.3 mb 30.55 in1034.5 mb -
Precipitation 0.00 in0.0 mm - -
Hour Temp Dew Point Humidity Winds Wind Gusts Pressure Precip Precip Rate Daily Precip Total
12:03 AM 15.1°F-9.4°C 10.1°F-12.2°C 80% 2.0 mph N3.2 kmh N 2.0 mph3.2 kmh 30.64 in1037.6 mb 0.00 in0.0 mm 0.00 in0.0 mm 0.04 in1.0 mm
12:08 AM 15.1°F-9.4°C 10.1°F-12.2°C 80% 2.0 mph N3.2 kmh N 7.0 mph11.3 kmh 30.64 in1037.6 mb 0.00 in0.0 mm 0.00 in0.0 mm 0.04 in1.0 mm
12:13 AM 15.0°F-9.4°C 10.0°F-12.2°C 80% 2.0 mph 3.2 kmh 7.0 mph11.3 kmh 30.64 in1037.6 mb 0.00 in0.0 mm 0.00 in0.0 mm 0.04 in1.0 mm
12:18 AM 15.0°F-9.4°C 10.0°F-12.2°C 80% 1.0 mph N1.6 kmh N 7.0 mph11.3 kmh 30.64 in1037.6 mb 0.00 in0.0 mm 0.00 in0.0 mm 0.04 in1.0 mm
12:23 AM 14.9°F-9.5°C 9.9°F-12.3°C 80% 5.0 mph NE8.0 kmh NE 7.0 mph11.3 kmh 30.64 in1037.6 mb 0.00 in0.0 mm 0.00 in0.0 mm 0.04 in1.0 mm
12:28 AM 14.9°F-9.5°C 9.9°F-12.3°C 80% 4.0 mph NE6.4 kmh NE 5.0 mph8.0 kmh 30.64 in1037.6 mb 0.00 in0.0 mm 0.00 in0.0 mm 0.04 in1.0 mm
12:33 AM 14.9°F-9.5°C 9.9°F-12.3°C 80% 1.0 mph NE1.6 kmh NE 5.0 mph8.0 kmh 30.65 in1037.9 mb 0.00 in0.0 mm 0.00 in0.0 mm 0.04 in1.0 mm
12:38 AM 14.9°F-9.5°C 9.9°F-12.3°C 80% 2.0 mph N3.2 kmh N 7.0 mph11.3 kmh 30.65 in1037.9 mb 0.00 in0.0 mm 0.00 in0.0 mm 0.04 in1.0 mm
12:43 AM 14.9°F-9.5°C 9.9°F-12.3°C 80% 2.0 mph N3.2 kmh N 7.0 mph11.3 kmh 30.65 in1037.9 mb 0.00 in0.0 mm 0.00 in0.0 mm 0.04 in1.0 mm
12:48 AM 14.8°F-9.6°C 9.8°F-12.3°C 80% 3.0 mph N4.8 kmh N 7.0 mph11.3 kmh 30.65 in1037.9 mb 0.00 in0.0 mm 0.00 in0.0 mm 0.04 in1.0 mm
12:53 AM 14.8°F-9.6°C 9.5°F-12.5°C 79% 3.0 mph N4.8 kmh N 7.0 mph11.3 kmh 30.65 in1037.9 mb 0.00 in0.0 mm 0.00 in0.0 mm 0.04 in1.0 mm
12:58 AM 14.8°F-9.6°C 9.5°F-12.5°C 79% 1.0 mph N1.6 kmh N 5.0 mph8.0 kmh 30.65 in1037.9 mb 0.00 in0.0 mm 0.00 in0.0 mm 0.04 in1.0 mm
01:03 AM 14.7°F-9.6°C 9.4°F-12.6°C 79% 2.0 mph NE3.2 kmh NE 6.0 mph9.7 kmh 30.65 in1037.9 mb 0.00 in0.0 mm 0.00 in0.0 mm 0.00 in0.0 mm
01:08 AM 14.7°F-9.6°C 9.4°F-12.6°C 79% 1.0 mph NNE1.6 kmh NNE 6.0 mph9.7 kmh 30.65 in1037.9 mb 0.00 in0.0 mm 0.00 in0.0 mm 0.00 in0.0 mm
01:13 AM 14.7°F-9.6°C 9.4°F-12.6°C 79% 1.0 mph N1.6 kmh N 8.0 mph12.9 kmh 30.65 in1037.9 mb 0.00 in0.0 mm 0.00 in0.0 mm 0.00 in0.0 mm
01:18 AM 14.7°F-9.6°C 9.4°F-12.6°C 79% 5.0 mph N8.0 kmh N 8.0 mph12.9 kmh 30.65 in1037.9 mb 0.00 in0.0 mm 0.00 in0.0 mm 0.00 in0.0 mm
01:23 AM 14.7°F-9.6°C 9.4°F-12.6°C 79% 1.0 mph N1.6 kmh N 8.0 mph12.9 kmh 30.65 in1037.9 mb 0.00 in0.0 mm 0.00 in0.0 mm 0.00 in0.0 mm
01:28 AM 14.7°F-9.6°C 9.4°F-12.6°C 79% 3.0 mph N4.8 kmh N 8.0 mph12.9 kmh 30.65 in1037.9 mb 0.00 in0.0 mm 0.00 in0.0 mm 0.00 in0.0 mm
01:33 AM 14.7°F-9.6°C 9.4°F-12.6°C 79% 3.0 mph NNE4.8 kmh NNE 6.0 mph9.7 kmh 30.65 in1037.9 mb 0.00 in0.0 mm 0.00 in0.0 mm 0.00 in0.0 mm
01:38 AM 14.7°F-9.6°C 9.4°F-12.6°C 79% 3.0 mph NNE4.8 kmh NNE 6.0 mph9.7 kmh 30.64 in1037.6 mb 0.00 in0.0 mm 0.00 in0.0 mm 0.00 in0.0 mm
01:43 AM 14.7°F-9.6°C 9.4°F-12.6°C 79% 2.0 mph NE3.2 kmh NE 5.0 mph8.0 kmh 30.64 in1037.6 mb 0.00 in0.0 mm 0.00 in0.0 mm 0.00 in0.0 mm
01:48 AM 14.7°F-9.6°C 9.4°F-12.6°C 79% 3.0 mph NE4.8 kmh NE 5.0 mph8.0 kmh 30.65 in1037.9 mb 0.00 in0.0 mm 0.00 in0.0 mm 0.00 in0.0 mm
01:53 AM 14.7°F-9.6°C 9.4°F-12.6°C 79% 4.0 mph NE6.4 kmh NE 6.0 mph9.7 kmh 30.64 in1037.6 mb 0.00 in0.0 mm 0.00 in0.0 mm 0.00 in0.0 mm
01:58 AM 14.6°F-9.7°C 9.3°F-12.6°C 79% 3.0 mph NE4.8 kmh NE 6.0 mph9.7 kmh 30.65 in1037.9 mb 0.00 in0.0 mm 0.00 in0.0 mm 0.00 in0.0 mm
02:03 AM 14.6°F-9.7°C 9.3°F-12.6°C 79% 2.0 mph NE3.2 kmh NE 6.0 mph9.7 kmh 30.65 in1037.9 mb 0.00 in0.0 mm 0.00 in0.0 mm 0.00 in0.0 mm
02:08 AM 14.6°F-9.7°C 9.3°F-12.6°C 79% 1.0 mph NE1.6 kmh NE 6.0 mph9.7 kmh 30.65 in1037.9 mb 0.00 in0.0 mm 0.00 in0.0 mm 0.00 in0.0 mm
02:13 AM 14.6°F-9.7°C 9.3°F-12.6°C 79% 1.0 mph NE1.6 kmh NE 4.0 mph6.4 kmh 30.65 in1037.9 mb 0.00 in0.0 mm 0.00 in0.0 mm 0.00 in0.0 mm
02:18 AM 14.6°F-9.7°C 9.6°F-12.4°C 80% 1.0 mph NE1.6 kmh NE 4.0 mph6.4 kmh 30.65 in1037.9 mb 0.00 in0.0 mm 0.00 in0.0 mm 0.00 in0.0 mm
02:23 AM 14.6°F-9.7°C 9.6°F-12.4°C 80% 1.0 mph NE1.6 kmh NE 3.0 mph4.8 kmh 30.65 in1037.9 mb 0.00 in0.0 mm 0.00 in0.0 mm 0.00 in0.0 mm
02:28 AM 14.6°F-9.7°C 9.6°F-12.4°C 80% 1.0 mph NE1.6 kmh NE 3.0 mph4.8 kmh 30.65 in1037.9 mb 0.00 in0.0 mm 0.00 in0.0 mm 0.00 in0.0 mm
02:33 AM 14.5°F-9.7°C 9.5°F-12.5°C 80% 2.0 mph NE3.2 kmh NE 3.0 mph4.8 kmh 30.65 in1037.9 mb 0.00 in0.0 mm 0.00 in0.0 mm 0.00 in0.0 mm
02:38 AM 14.5°F-9.7°C 9.5°F-12.5°C 80% 5.0 mph E8.0 kmh E 5.0 mph8.0 kmh 30.65 in1037.9 mb 0.00 in0.0 mm 0.00 in0.0 mm 0.00 in0.0 mm
02:43 AM 14.4°F-9.8°C 9.4°F-12.6°C 80% 1.0 mph ESE1.6 kmh ESE 5.0 mph8.0 kmh 30.66 in1038.3 mb 0.00 in0.0 mm 0.00 in0.0 mm 0.00 in0.0 mm
02:48 AM 14.4°F-9.8°C 9.4°F-12.6°C 80% 2.0 mph E3.2 kmh E 5.0 mph8.0 kmh 30.66 in1038.3 mb 0.00 in0.0 mm 0.00 in0.0 mm 0.00 in0.0 mm
02:53 AM 14.4°F-9.8°C 9.4°F-12.6°C 80% 1.0 mph E1.6 kmh E 5.0 mph8.0 kmh 30.66 in1038.3 mb 0.00 in0.0 mm 0.00 in0.0 mm 0.00 in0.0 mm
02:58 AM 14.4°F-9.8°C 9.4°F-12.6°C 80% 2.0 mph E3.2 kmh E 5.0 mph8.0 kmh 30.66 in1038.3 mb 0.00 in0.0 mm 0.00 in0.0 mm 0.00 in0.0 mm
03:03 AM 14.4°F-9.8°C 9.4°F-12.6°C 80% 2.0 mph ESE3.2 kmh ESE 5.0 mph8.0 kmh 30.66 in1038.3 mb 0.00 in0.0 mm 0.00 in0.0 mm 0.00 in0.0 mm
03:08 AM 14.4°F-9.8°C 9.4°F-12.6°C 80% 1.0 mph ESE1.6 kmh ESE 5.0 mph8.0 kmh 30.66 in1038.3 mb 0.00 in0.0 mm 0.00 in0.0 mm 0.00 in0.0 mm
03:13 AM 14.4°F-9.8°C 9.4°F-12.6°C 80% 1.0 mph ESE1.6 kmh ESE 5.0 mph8.0 kmh 30.66 in1038.3 mb 0.00 in0.0 mm 0.00 in0.0 mm 0.00 in0.0 mm
03:18 AM 14.4°F-9.8°C 9.4°F-12.6°C 80% 1.0 mph ESE1.6 kmh ESE 5.0 mph8.0 kmh 30.66 in1038.3 mb 0.00 in0.0 mm 0.00 in0.0 mm 0.00 in0.0 mm
03:23 AM 14.4°F-9.8°C 9.4°F-12.6°C 80% 1.0 mph ESE1.6 kmh ESE 3.0 mph4.8 kmh 30.67 in1038.6 mb 0.00 in0.0 mm 0.00 in0.0 mm 0.00 in0.0 mm
03:28 AM 14.4°F-9.8°C 9.4°F-12.6°C 80% Calm Calm -- 30.67 in1038.6 mb 0.00 in0.0 mm 0.00 in0.0 mm 0.00 in0.0 mm
03:33 AM 14.4°F-9.8°C 9.4°F-12.6°C 80% 2.0 mph ESE3.2 kmh ESE 2.0 mph3.2 kmh 30.67 in1038.6 mb 0.00 in0.0 mm 0.00 in0.0 mm 0.00 in0.0 mm
03:38 AM 14.3°F-9.8°C 9.3°F-12.6°C 80% 1.0 mph ESE1.6 kmh ESE 2.0 mph3.2 kmh 30.67 in1038.6 mb 0.00 in0.0 mm 0.00 in0.0 mm 0.00 in0.0 mm
03:43 AM 14.3°F-9.8°C 9.3°F-12.6°C 80% 3.0 mph ESE4.8 kmh ESE 3.0 mph4.8 kmh 30.67 in1038.6 mb 0.00 in0.0 mm 0.00 in0.0 mm 0.00 in0.0 mm
03:48 AM 14.3°F-9.8°C 9.3°F-12.6°C 80% 1.0 mph ESE1.6 kmh ESE 3.0 mph4.8 kmh 30.68 in1038.9 mb 0.00 in0.0 mm 0.00 in0.0 mm 0.00 in0.0 mm
03:53 AM 14.3°F-9.8°C 9.6°F-12.4°C 81% 2.0 mph ESE3.2 kmh ESE 3.0 mph4.8 kmh 30.67 in1038.6 mb 0.00 in0.0 mm 0.00 in0.0 mm 0.00 in0.0 mm
03:58 AM 14.2°F-9.9°C 9.5°F-12.5°C 81% Calm Calm 3.0 mph4.8 kmh 30.68 in1038.9 mb 0.00 in0.0 mm 0.00 in0.0 mm 0.00 in0.0 mm
04:03 AM 14.2°F-9.9°C 9.5°F-12.5°C 81% Calm Calm -- 30.68 in1038.9 mb 0.00 in0.0 mm 0.00 in0.0 mm 0.00 in0.0 mm
04:08 AM 14.3°F-9.8°C 9.6°F-12.4°C 81% Calm Calm -- 30.68 in1038.9 mb 0.00 in0.0 mm 0.00 in0.0 mm 0.00 in0.0 mm
04:13 AM 14.2°F-9.9°C 9.5°F-12.5°C 81% Calm Calm 1.0 mph1.6 kmh 30.68 in1038.9 mb 0.00 in0.0 mm 0.00 in0.0 mm 0.00 in0.0 mm
04:18 AM 14.2°F-9.9°C 9.5°F-12.5°C 81% Calm Calm -- 30.68 in1038.9 mb 0.00 in0.0 mm 0.00 in0.0 mm 0.00 in0.0 mm
04:23 AM 14.2°F-9.9°C 9.5°F-12.5°C 81% Calm Calm -- 30.68 in1038.9 mb 0.00 in0.0 mm 0.00 in0.0 mm 0.00 in0.0 mm
04:28 AM 14.1°F-9.9°C 9.4°F-12.6°C 81% Calm Calm -- 30.68 in1038.9 mb 0.00 in0.0 mm 0.00 in0.0 mm 0.00 in0.0 mm
04:33 AM 14.1°F-9.9°C 9.4°F-12.6°C 81% 2.0 mph ESE3.2 kmh ESE 2.0 mph3.2 kmh 30.68 in1038.9 mb 0.00 in0.0 mm 0.00 in0.0 mm 0.00 in0.0 mm
04:38 AM 14.0°F-10.0°C 9.3°F-12.6°C 81% 2.0 mph SE3.2 kmh SE 3.0 mph4.8 kmh 30.68 in1038.9 mb 0.00 in0.0 mm 0.00 in0.0 mm 0.00 in0.0 mm
04:43 AM 14.0°F-10.0°C 9.3°F-12.6°C 81% Calm Calm 3.0 mph4.8 kmh 30.68 in1038.9 mb 0.00 in0.0 mm 0.00 in0.0 mm 0.00 in0.0 mm
04:48 AM 14.0°F-10.0°C 9.6°F-12.4°C 82% 2.0 mph SE3.2 kmh SE 3.0 mph4.8 kmh 30.68 in1038.9 mb 0.00 in0.0 mm 0.00 in0.0 mm 0.00 in0.0 mm
04:53 AM 14.1°F-9.9°C 9.7°F-12.4°C 82% 1.0 mph SE1.6 kmh SE 3.0 mph4.8 kmh 30.68 in1038.9 mb 0.00 in0.0 mm 0.00 in0.0 mm 0.00 in0.0 mm
04:58 AM 14.1°F-9.9°C 9.7°F-12.4°C 82% Calm Calm 3.0 mph4.8 kmh 30.68 in1038.9 mb 0.00 in0.0 mm 0.00 in0.0 mm 0.00 in0.0 mm
05:03 AM 14.1°F-9.9°C 9.7°F-12.4°C 82% 1.0 mph SE1.6 kmh SE 3.0 mph4.8 kmh 30.68 in1038.9 mb 0.00 in0.0 mm 0.00 in0.0 mm 0.00 in0.0 mm
05:08 AM 14.1°F-9.9°C 9.7°F-12.4°C 82% Calm Calm 3.0 mph4.8 kmh 30.68 in1038.9 mb 0.00 in0.0 mm 0.00 in0.0 mm 0.00 in0.0 mm
05:13 AM 14.1°F-9.9°C 9.7°F-12.4°C 82% 2.0 mph SE3.2 kmh SE 3.0 mph4.8 kmh 30.68 in1038.9 mb 0.00 in0.0 mm 0.00 in0.0 mm 0.00 in0.0 mm
05:18 AM 14.1°F-9.9°C 9.7°F-12.4°C 82% Calm Calm 3.0 mph4.8 kmh 30.68 in1038.9 mb 0.00 in0.0 mm 0.00 in0.0 mm 0.00 in0.0 mm
05:23 AM 14.0°F-10.0°C 9.6°F-12.4°C 82% Calm Calm 3.0 mph4.8 kmh 30.68 in1038.9 mb 0.00 in0.0 mm 0.00 in0.0 mm 0.00 in0.0 mm
05:28 AM 14.1°F-9.9°C 9.7°F-12.4°C 82% 1.0 mph SSW1.6 kmh SSW 3.0 mph4.8 kmh 30.69 in1039.3 mb 0.00 in0.0 mm 0.00 in0.0 mm 0.00 in0.0 mm
05:33 AM 14.1°F-9.9°C 9.7°F-12.4°C 82% 1.0 mph SSW1.6 kmh SSW 3.0 mph4.8 kmh 30.69 in1039.3 mb 0.00 in0.0 mm 0.00 in0.0 mm 0.00 in0.0 mm
05:38 AM 14.1°F-9.9°C 9.7°F-12.4°C 82% Calm Calm -- 30.69 in1039.3 mb 0.00 in0.0 mm 0.00 in0.0 mm 0.00 in0.0 mm
05:43 AM 14.1°F-9.9°C 9.7°F-12.4°C 82% 2.0 mph SSW3.2 kmh SSW 2.0 mph3.2 kmh 30.68 in1038.9 mb 0.00 in0.0 mm 0.00 in0.0 mm 0.00 in0.0 mm
05:48 AM 14.1°F-9.9°C 9.7°F-12.4°C 82% 3.0 mph SSW4.8 kmh SSW 4.0 mph6.4 kmh 30.68 in1038.9 mb 0.00 in0.0 mm 0.00 in0.0 mm 0.00 in0.0 mm
05:53 AM 14.1°F-9.9°C 9.7°F-12.4°C 82% 1.0 mph SSW1.6 kmh SSW 1.0 mph1.6 kmh 30.68 in1038.9 mb 0.00 in0.0 mm 0.00 in0.0 mm 0.00 in0.0 mm
05:58 AM 14.1°F-9.9°C 9.9°F-12.3°C 83% 1.0 mph SSW1.6 kmh SSW 4.0 mph6.4 kmh 30.69 in1039.3 mb 0.00 in0.0 mm 0.00 in0.0 mm 0.00 in0.0 mm
06:03 AM 14.0°F-10.0°C 9.9°F-12.3°C 83% 2.0 mph SSW3.2 kmh SSW 4.0 mph6.4 kmh 30.69 in1039.3 mb 0.00 in0.0 mm 0.00 in0.0 mm 0.00 in0.0 mm
06:08 AM 14.0°F-10.0°C 9.9°F-12.3°C 83% 2.0 mph SSW3.2 kmh SSW 4.0 mph6.4 kmh 30.69 in1039.3 mb 0.00 in0.0 mm 0.00 in0.0 mm 0.00 in0.0 mm
06:13 AM 14.0°F-10.0°C 9.9°F-12.3°C 83% 2.0 mph SSW3.2 kmh SSW 4.0 mph6.4 kmh 30.69 in1039.3 mb 0.00 in0.0 mm 0.00 in0.0 mm 0.00 in0.0 mm
06:18 AM 14.0°F-10.0°C 9.9°F-12.3°C 83% Calm Calm 3.0 mph4.8 kmh 30.68 in1038.9 mb 0.00 in0.0 mm 0.00 in0.0 mm 0.00 in0.0 mm
06:23 AM 13.9°F-10.1°C 9.8°F-12.3°C 83% 4.0 mph SSW6.4 kmh SSW 4.0 mph6.4 kmh 30.69 in1039.3 mb 0.00 in0.0 mm 0.00 in0.0 mm 0.00 in0.0 mm
06:28 AM 13.9°F-10.1°C 9.8°F-12.3°C 83% 1.0 mph SSW1.6 kmh SSW 4.0 mph6.4 kmh 30.69 in1039.3 mb 0.00 in0.0 mm 0.00 in0.0 mm 0.00 in0.0 mm
06:33 AM 13.9°F-10.1°C 9.8°F-12.3°C 83% 1.0 mph SSW1.6 kmh SSW 4.0 mph6.4 kmh 30.69 in1039.3 mb 0.00 in0.0 mm 0.00 in0.0 mm 0.00 in0.0 mm
06:38 AM 13.9°F-10.1°C 9.8°F-12.3°C 83% Calm Calm 4.0 mph6.4 kmh 30.70 in1039.6 mb 0.00 in0.0 mm 0.00 in0.0 mm 0.00 in0.0 mm
06:43 AM 13.9°F-10.1°C 9.8°F-12.3°C 83% 1.0 mph SSW1.6 kmh SSW 1.0 mph1.6 kmh 30.69 in1039.3 mb 0.00 in0.0 mm 0.00 in0.0 mm 0.00 in0.0 mm
06:48 AM 13.9°F-10.1°C 9.8°F-12.3°C 83% Calm Calm -- 30.70 in1039.6 mb 0.00 in0.0 mm 0.00 in0.0 mm 0.00 in0.0 mm
06:53 AM 13.8°F-10.1°C 9.7°F-12.4°C 83% 2.0 mph SSW3.2 kmh SSW 2.0 mph3.2 kmh 30.70 in1039.6 mb 0.00 in0.0 mm 0.00 in0.0 mm 0.00 in0.0 mm
06:58 AM 13.9°F-10.1°C 9.8°F-12.3°C 83% Calm Calm 1.0 mph1.6 kmh 30.70 in1039.6 mb 0.00 in0.0 mm 0.00 in0.0 mm 0.00 in0.0 mm
07:03 AM 13.8°F-10.1°C 9.7°F-12.4°C 83% 1.0 mph SSW1.6 kmh SSW 1.0 mph1.6 kmh 30.70 in1039.6 mb 0.00 in0.0 mm 0.00 in0.0 mm 0.00 in0.0 mm
07:08 AM 13.8°F-10.1°C 9.7°F-12.4°C 83% 2.0 mph SSW3.2 kmh SSW 2.0 mph3.2 kmh 30.70 in1039.6 mb 0.00 in0.0 mm 0.00 in0.0 mm 0.00 in0.0 mm
07:13 AM 13.8°F-10.1°C 9.7°F-12.4°C 83% 1.0 mph SSW1.6 kmh SSW 3.0 mph4.8 kmh 30.70 in1039.6 mb 0.00 in0.0 mm 0.00 in0.0 mm 0.00 in0.0 mm
07:18 AM 13.8°F-10.1°C 9.7°F-12.4°C 83% Calm Calm 3.0 mph4.8 kmh 30.70 in1039.6 mb 0.00 in0.0 mm 0.00 in0.0 mm 0.00 in0.0 mm
07:23 AM 13.8°F-10.1°C 9.7°F-12.4°C 83% 1.0 mph SSW1.6 kmh SSW 3.0 mph4.8 kmh 30.70 in1039.6 mb 0.00 in0.0 mm 0.00 in0.0 mm 0.00 in0.0 mm
07:28 AM 13.8°F-10.1°C 9.7°F-12.4°C 83% 1.0 mph SSW1.6 kmh SSW 3.0 mph4.8 kmh 30.70 in1039.6 mb 0.00 in0.0 mm 0.00 in0.0 mm 0.00 in0.0 mm
07:33 AM 13.7°F-10.2°C 9.6°F-12.4°C 83% 1.0 mph SSW1.6 kmh SSW 2.0 mph3.2 kmh 30.70 in1039.6 mb 0.00 in0.0 mm 0.00 in0.0 mm 0.00 in0.0 mm
07:38 AM 13.7°F-10.2°C 9.6°F-12.4°C 83% 1.0 mph SSW1.6 kmh SSW 2.0 mph3.2 kmh 30.70 in1039.6 mb 0.00 in0.0 mm 0.00 in0.0 mm 0.00 in0.0 mm
07:43 AM 13.7°F-10.2°C 9.6°F-12.4°C 83% Calm Calm 2.0 mph3.2 kmh 30.71 in1040.0 mb 0.00 in0.0 mm 0.00 in0.0 mm 0.00 in0.0 mm
07:48 AM 13.6°F-10.2°C 9.5°F-12.5°C 83% 1.0 mph SSW1.6 kmh SSW 1.0 mph1.6 kmh 30.71 in1040.0 mb 0.00 in0.0 mm 0.00 in0.0 mm 0.00 in0.0 mm
07:53 AM 13.6°F-10.2°C 9.5°F-12.5°C 83% Calm Calm -- 30.71 in1040.0 mb 0.00 in0.0 mm 0.00 in0.0 mm 0.00 in0.0 mm
07:58 AM 13.5°F-10.3°C 9.4°F-12.6°C 83% Calm Calm -- 30.71 in1040.0 mb 0.00 in0.0 mm 0.00 in0.0 mm 0.00 in0.0 mm
08:03 AM 13.4°F-10.3°C 9.3°F-12.6°C 83% 1.0 mph SSW1.6 kmh SSW 1.0 mph1.6 kmh 30.71 in1040.0 mb 0.00 in0.0 mm 0.00 in0.0 mm 0.00 in0.0 mm
08:08 AM 13.3°F-10.4°C 9.2°F-12.7°C 83% Calm Calm 1.0 mph1.6 kmh 30.71 in1040.0 mb 0.00 in0.0 mm 0.00 in0.0 mm 0.00 in0.0 mm
08:13 AM 13.2°F-10.4°C 9.1°F-12.7°C 83% Calm Calm -- 30.71 in1040.0 mb 0.00 in0.0 mm 0.00 in0.0 mm 0.00 in0.0 mm
08:18 AM 13.1°F-10.5°C 9.0°F-12.8°C 83% Calm Calm -- 30.71 in1040.0 mb 0.00 in0.0 mm 0.00 in0.0 mm 0.00 in0.0 mm
08:23 AM 13.0°F-10.6°C 8.9°F-12.8°C 83% Calm Calm 1.0 mph1.6 kmh 30.71 in1040.0 mb 0.00 in0.0 mm 0.00 in0.0 mm 0.00 in0.0 mm
08:28 AM 12.9°F-10.6°C 8.8°F-12.9°C 83% Calm Calm -- 30.71 in1040.0 mb 0.00 in0.0 mm 0.00 in0.0 mm 0.00 in0.0 mm
08:33 AM 12.9°F-10.6°C 8.8°F-12.9°C 83% Calm Calm 2.0 mph3.2 kmh 30.72 in1040.3 mb 0.00 in0.0 mm 0.00 in0.0 mm 0.00 in0.0 mm
08:38 AM 12.8°F-10.7°C 8.7°F-12.9°C 83% Calm Calm 2.0 mph3.2 kmh 30.72 in1040.3 mb 0.00 in0.0 mm 0.00 in0.0 mm 0.00 in0.0 mm
08:43 AM 12.9°F-10.6°C 8.8°F-12.9°C 83% Calm Calm -- 30.72 in1040.3 mb 0.00 in0.0 mm 0.00 in0.0 mm 0.00 in0.0 mm
08:48 AM 12.9°F-10.6°C 8.8°F-12.9°C 83% Calm Calm 1.0 mph1.6 kmh 30.72 in1040.3 mb 0.00 in0.0 mm 0.00 in0.0 mm 0.00 in0.0 mm
08:53 AM 12.9°F-10.6°C 8.8°F-12.9°C 83% 1.0 mph SSW1.6 kmh SSW 1.0 mph1.6 kmh 30.72 in1040.3 mb 0.00 in0.0 mm 0.00 in0.0 mm 0.00 in0.0 mm
08:58 AM 13.0°F-10.6°C 8.9°F-12.8°C 83% Calm Calm 1.0 mph1.6 kmh 30.72 in1040.3 mb 0.00 in0.0 mm 0.00 in0.0 mm 0.00 in0.0 mm
09:03 AM 13.0°F-10.6°C 8.9°F-12.8°C 83% 1.0 mph SSW1.6 kmh SSW 1.0 mph1.6 kmh 30.72 in1040.3 mb 0.00 in0.0 mm 0.00 in0.0 mm 0.00 in0.0 mm
09:08 AM 13.1°F-10.5°C 9.0°F-12.8°C 83% Calm Calm 1.0 mph1.6 kmh 30.72 in1040.3 mb 0.00 in0.0 mm 0.00 in0.0 mm 0.00 in0.0 mm
09:13 AM 13.1°F-10.5°C 9.0°F-12.8°C 83% 1.0 mph SSW1.6 kmh SSW 1.0 mph1.6 kmh 30.72 in1040.3 mb 0.00 in0.0 mm 0.00 in0.0 mm 0.00 in0.0 mm
09:18 AM 13.2°F-10.4°C 9.1°F-12.7°C 83% 2.0 mph SSW3.2 kmh SSW 3.0 mph4.8 kmh 30.73 in1040.6 mb 0.00 in0.0 mm 0.00 in0.0 mm 0.00 in0.0 mm
09:23 AM 13.3°F-10.4°C 9.2°F-12.7°C 83% Calm Calm 3.0 mph4.8 kmh 30.73 in1040.6 mb 0.00 in0.0 mm 0.00 in0.0 mm 0.00 in0.0 mm
09:28 AM 13.4°F-10.3°C 9.5°F-12.5°C 84% 2.0 mph SW3.2 kmh SW 6.0 mph9.7 kmh 30.73 in1040.6 mb 0.00 in0.0 mm 0.00 in0.0 mm 0.00 in0.0 mm
09:33 AM 13.5°F-10.3°C 9.6°F-12.4°C 84% 3.0 mph SSW4.8 kmh SSW 6.0 mph9.7 kmh 30.73 in1040.6 mb 0.00 in0.0 mm 0.00 in0.0 mm 0.00 in0.0 mm
09:38 AM 13.5°F-10.3°C 9.6°F-12.4°C 84% 3.0 mph SSW4.8 kmh SSW 6.0 mph9.7 kmh 30.73 in1040.6 mb 0.00 in0.0 mm 0.00 in0.0 mm 0.00 in0.0 mm
09:43 AM 13.5°F-10.3°C 9.6°F-12.4°C 84% 3.0 mph SW4.8 kmh SW 6.0 mph9.7 kmh 30.73 in1040.6 mb 0.00 in0.0 mm 0.00 in0.0 mm 0.00 in0.0 mm
09:48 AM 13.6°F-10.2°C 9.5°F-12.5°C 83% 2.0 mph SSW3.2 kmh SSW 6.0 mph9.7 kmh 30.73 in1040.6 mb 0.00 in0.0 mm 0.00 in0.0 mm 0.00 in0.0 mm
09:53 AM 13.6°F-10.2°C 9.5°F-12.5°C 83% 3.0 mph S4.8 kmh S 7.0 mph11.3 kmh 30.73 in1040.6 mb 0.00 in0.0 mm 0.00 in0.0 mm 0.00 in0.0 mm
09:58 AM 13.7°F-10.2°C 9.6°F-12.4°C 83% 2.0 mph S3.2 kmh S 7.0 mph11.3 kmh 30.74 in1041.0 mb 0.00 in0.0 mm 0.00 in0.0 mm 0.00 in0.0 mm
10:03 AM 13.7°F-10.2°C 9.6°F-12.4°C 83% 4.0 mph S6.4 kmh S 7.0 mph11.3 kmh 30.74 in1041.0 mb 0.00 in0.0 mm 0.00 in0.0 mm 0.00 in0.0 mm
10:08 AM 13.7°F-10.2°C 9.6°F-12.4°C 83% 5.0 mph SSW8.0 kmh SSW 7.0 mph11.3 kmh 30.74 in1041.0 mb 0.00 in0.0 mm 0.00 in0.0 mm 0.00 in0.0 mm
10:13 AM 13.7°F-10.2°C 9.6°F-12.4°C 83% 4.0 mph S6.4 kmh S 5.0 mph8.0 kmh 30.74 in1041.0 mb 0.00 in0.0 mm 0.00 in0.0 mm 0.00 in0.0 mm
10:18 AM 13.7°F-10.2°C 9.6°F-12.4°C 83% Calm Calm 6.0 mph9.7 kmh 30.74 in1041.0 mb 0.00 in0.0 mm 0.00 in0.0 mm 0.00 in0.0 mm
10:23 AM 13.8°F-10.1°C 9.7°F-12.4°C 83% Calm Calm 6.0 mph9.7 kmh 30.74 in1041.0 mb 0.00 in0.0 mm 0.00 in0.0 mm 0.00 in0.0 mm
10:28 AM 13.9°F-10.1°C 9.8°F-12.3°C 83% 1.0 mph S1.6 kmh S 6.0 mph9.7 kmh 30.74 in1041.0 mb 0.00 in0.0 mm 0.00 in0.0 mm 0.00 in0.0 mm
10:33 AM 14.1°F-9.9°C 9.9°F-12.3°C 83% 5.0 mph S8.0 kmh S 6.0 mph9.7 kmh 30.74 in1041.0 mb 0.00 in0.0 mm 0.00 in0.0 mm 0.00 in0.0 mm
10:38 AM 14.2°F-9.9°C 9.8°F-12.3°C 82% 3.0 mph S4.8 kmh S 6.0 mph9.7 kmh 30.75 in1041.3 mb 0.00 in0.0 mm 0.00 in0.0 mm 0.00 in0.0 mm
10:43 AM 14.4°F-9.8°C 10.2°F-12.1°C 83% 4.0 mph SSW6.4 kmh SSW 6.0 mph9.7 kmh 30.75 in1041.3 mb 0.00 in0.0 mm 0.00 in0.0 mm 0.00 in0.0 mm
10:48 AM 14.5°F-9.7°C 10.1°F-12.2°C 82% 4.0 mph SSW6.4 kmh SSW 6.0 mph9.7 kmh 30.75 in1041.3 mb 0.00 in0.0 mm 0.00 in0.0 mm 0.00 in0.0 mm
10:53 AM 14.6°F-9.7°C 10.2°F-12.1°C 82% 4.0 mph S6.4 kmh S 6.0 mph9.7 kmh 30.75 in1041.3 mb 0.00 in0.0 mm 0.00 in0.0 mm 0.00 in0.0 mm
10:58 AM 14.8°F-9.6°C 10.4°F-12.0°C 82% 4.0 mph S6.4 kmh S 7.0 mph11.3 kmh 30.75 in1041.3 mb 0.00 in0.0 mm 0.00 in0.0 mm 0.00 in0.0 mm
11:03 AM 14.9°F-9.5°C 10.2°F-12.1°C 81% 4.0 mph S6.4 kmh S 8.0 mph12.9 kmh 30.75 in1041.3 mb 0.00 in0.0 mm 0.00 in0.0 mm 0.00 in0.0 mm
11:08 AM 15.0°F-9.4°C 10.3°F-12.1°C 81% 6.0 mph SSE9.7 kmh SSE 8.0 mph12.9 kmh 30.75 in1041.3 mb 0.00 in0.0 mm 0.00 in0.0 mm 0.00 in0.0 mm
11:13 AM 15.1°F-9.4°C 10.1°F-12.2°C 80% 4.0 mph SSW6.4 kmh SSW 8.0 mph12.9 kmh 30.75 in1041.3 mb 0.00 in0.0 mm 0.00 in0.0 mm 0.00 in0.0 mm
11:18 AM 15.3°F-9.3°C 10.3°F-12.1°C 80% 2.0 mph SSW3.2 kmh SSW 8.0 mph12.9 kmh 30.75 in1041.3 mb 0.00 in0.0 mm 0.00 in0.0 mm 0.00 in0.0 mm
11:23 AM 15.5°F-9.2°C 10.5°F-11.9°C 80% 5.0 mph SSW8.0 kmh SSW 8.0 mph12.9 kmh 30.75 in1041.3 mb 0.00 in0.0 mm 0.00 in0.0 mm 0.00 in0.0 mm
11:28 AM 15.8°F-9.0°C 10.5°F-11.9°C 79% 4.0 mph S6.4 kmh S 8.0 mph12.9 kmh 30.75 in1041.3 mb 0.00 in0.0 mm 0.00 in0.0 mm 0.00 in0.0 mm
11:33 AM 16.1°F-8.8°C 10.8°F-11.8°C 79% 3.0 mph SSW4.8 kmh SSW 7.0 mph11.3 kmh 30.75 in1041.3 mb 0.00 in0.0 mm 0.00 in0.0 mm 0.00 in0.0 mm
11:38 AM 16.5°F-8.6°C 11.2°F-11.6°C 79% 5.0 mph SW8.0 kmh SW 7.0 mph11.3 kmh 30.75 in1041.3 mb 0.00 in0.0 mm 0.00 in0.0 mm 0.00 in0.0 mm
11:43 AM 16.8°F-8.4°C 11.2°F-11.6°C 78% 7.0 mph SSW11.3 kmh SSW 9.0 mph14.5 kmh 30.75 in1041.3 mb 0.00 in0.0 mm 0.00 in0.0 mm 0.00 in0.0 mm
11:48 AM 17.1°F-8.3°C 11.1°F-11.6°C 77% 6.0 mph S9.7 kmh S 9.0 mph14.5 kmh 30.75 in1041.3 mb 0.00 in0.0 mm 0.00 in0.0 mm 0.00 in0.0 mm
11:53 AM 17.4°F-8.1°C 11.4°F-11.4°C 77% 7.0 mph SSW11.3 kmh SSW 9.0 mph14.5 kmh 30.75 in1041.3 mb 0.00 in0.0 mm 0.00 in0.0 mm 0.00 in0.0 mm
11:58 AM 17.6°F-8.0°C 11.6°F-11.3°C 77% 5.0 mph S8.0 kmh S 9.0 mph14.5 kmh 30.75 in1041.3 mb 0.00 in0.0 mm 0.00 in0.0 mm 0.00 in0.0 mm
12:03 PM 17.8°F-7.9°C 11.5°F-11.4°C 76% 6.0 mph SSW9.7 kmh SSW 9.0 mph14.5 kmh 30.75 in1041.3 mb 0.00 in0.0 mm 0.00 in0.0 mm 0.00 in0.0 mm
12:08 PM 18.0°F-7.8°C 11.7°F-11.3°C 76% 8.0 mph S12.9 kmh S 9.0 mph14.5 kmh 30.75 in1041.3 mb 0.00 in0.0 mm 0.00 in0.0 mm 0.00 in0.0 mm
12:13 PM 18.2°F-7.7°C 11.6°F-11.3°C 75% 6.0 mph S9.7 kmh S 9.0 mph14.5 kmh 30.75 in1041.3 mb 0.00 in0.0 mm 0.00 in0.0 mm 0.00 in0.0 mm
12:18 PM 18.2°F-7.7°C 11.3°F-11.5°C 74% 6.0 mph SSE9.7 kmh SSE 9.0 mph14.5 kmh 30.75 in1041.3 mb 0.00 in0.0 mm 0.00 in0.0 mm 0.00 in0.0 mm
12:23 PM 18.3°F-7.6°C 11.4°F-11.4°C 74% 7.0 mph S11.3 kmh S 9.0 mph14.5 kmh 30.75 in1041.3 mb 0.00 in0.0 mm 0.00 in0.0 mm 0.00 in0.0 mm
12:28 PM 18.6°F-7.4°C 11.7°F-11.3°C 74% 4.0 mph WSW6.4 kmh WSW 9.0 mph14.5 kmh 30.75 in1041.3 mb 0.00 in0.0 mm 0.00 in0.0 mm 0.00 in0.0 mm
12:33 PM 19.1°F-7.2°C 12.5°F-10.8°C 75% 3.0 mph SW4.8 kmh SW 9.0 mph14.5 kmh 30.75 in1041.3 mb 0.00 in0.0 mm 0.00 in0.0 mm 0.00 in0.0 mm
12:38 PM 19.5°F-6.9°C 12.5°F-10.8°C 74% 7.0 mph S11.3 kmh S 9.0 mph14.5 kmh 30.74 in1041.0 mb 0.00 in0.0 mm 0.00 in0.0 mm 0.00 in0.0 mm
12:43 PM 19.7°F-6.8°C 12.7°F-10.7°C 74% 5.0 mph SSW8.0 kmh SSW 9.0 mph14.5 kmh 30.74 in1041.0 mb 0.00 in0.0 mm 0.00 in0.0 mm 0.00 in0.0 mm
12:48 PM 19.8°F-6.8°C 12.5°F-10.8°C 73% 6.0 mph S9.7 kmh S 8.0 mph12.9 kmh 30.74 in1041.0 mb 0.00 in0.0 mm 0.00 in0.0 mm 0.00 in0.0 mm
12:53 PM 20.0°F-6.7°C 12.7°F-10.7°C 73% 4.0 mph SW6.4 kmh SW 8.0 mph12.9 kmh 30.74 in1041.0 mb 0.00 in0.0 mm 0.00 in0.0 mm 0.00 in0.0 mm
12:58 PM 20.2°F-6.6°C 12.6°F-10.8°C 72% 3.0 mph SW4.8 kmh SW 9.0 mph14.5 kmh 30.73 in1040.6 mb 0.00 in0.0 mm 0.00 in0.0 mm 0.00 in0.0 mm
01:03 PM 20.6°F-6.3°C 13.0°F-10.6°C 72% 5.0 mph WSW8.0 kmh WSW 9.0 mph14.5 kmh 30.73 in1040.6 mb 0.00 in0.0 mm 0.00 in0.0 mm 0.00 in0.0 mm
01:08 PM 20.9°F-6.2°C 13.3°F-10.4°C 72% 4.0 mph SW6.4 kmh SW 9.0 mph14.5 kmh 30.73 in1040.6 mb 0.00 in0.0 mm 0.00 in0.0 mm 0.00 in0.0 mm
01:13 PM 21.4°F-5.9°C 13.7°F-10.2°C 72% 3.0 mph SW4.8 kmh SW 9.0 mph14.5 kmh 30.73 in1040.6 mb 0.00 in0.0 mm 0.00 in0.0 mm 0.00 in0.0 mm
01:18 PM 21.9°F-5.6°C 13.9°F-10.1°C 71% 3.0 mph SW4.8 kmh SW 7.0 mph11.3 kmh 30.72 in1040.3 mb 0.00 in0.0 mm 0.00 in0.0 mm 0.00 in0.0 mm
01:23 PM 21.9°F-5.6°C 13.9°F-10.1°C 71% 7.0 mph SSW11.3 kmh SSW 10.0 mph16.1 kmh 30.72 in1040.3 mb 0.00 in0.0 mm 0.00 in0.0 mm 0.00 in0.0 mm
01:28 PM 21.6°F-5.8°C 13.3°F-10.4°C 70% 3.0 mph SW4.8 kmh SW 10.0 mph16.1 kmh 30.71 in1040.0 mb 0.00 in0.0 mm 0.00 in0.0 mm 0.00 in0.0 mm
01:33 PM 21.6°F-5.8°C 13.3°F-10.4°C 70% 8.0 mph S12.9 kmh S 10.0 mph16.1 kmh 30.71 in1040.0 mb 0.00 in0.0 mm 0.00 in0.0 mm 0.00 in0.0 mm
01:38 PM 21.3°F-5.9°C 13.0°F-10.6°C 70% 2.0 mph S3.2 kmh S 10.0 mph16.1 kmh 30.71 in1040.0 mb 0.00 in0.0 mm 0.00 in0.0 mm 0.00 in0.0 mm
01:43 PM 21.2°F-6.0°C 12.9°F-10.6°C 70% 4.0 mph SSW6.4 kmh SSW 10.0 mph16.1 kmh 30.70 in1039.6 mb 0.00 in0.0 mm 0.00 in0.0 mm 0.00 in0.0 mm
01:48 PM 21.3°F-5.9°C 13.0°F-10.6°C 70% 7.0 mph S11.3 kmh S 10.0 mph16.1 kmh 30.70 in1039.6 mb 0.00 in0.0 mm 0.00 in0.0 mm 0.00 in0.0 mm
01:53 PM 21.3°F-5.9°C 13.0°F-10.6°C 70% 5.0 mph WSW8.0 kmh WSW 10.0 mph16.1 kmh 30.70 in1039.6 mb 0.00 in0.0 mm 0.00 in0.0 mm 0.00 in0.0 mm
01:58 PM 21.7°F-5.7°C 13.7°F-10.2°C 71% 6.0 mph S9.7 kmh S 8.0 mph12.9 kmh 30.70 in1039.6 mb 0.00 in0.0 mm 0.00 in0.0 mm 0.00 in0.0 mm
02:03 PM 21.8°F-5.7°C 13.8°F-10.1°C 71% 6.0 mph S9.7 kmh S 8.0 mph12.9 kmh 30.70 in1039.6 mb 0.00 in0.0 mm 0.00 in0.0 mm 0.00 in0.0 mm
02:08 PM 21.7°F-5.7°C 13.0°F-10.6°C 69% 5.0 mph SSW8.0 kmh SSW 10.0 mph16.1 kmh 30.69 in1039.3 mb 0.00 in0.0 mm 0.00 in0.0 mm 0.00 in0.0 mm
02:13 PM 21.4°F-5.9°C 12.7°F-10.7°C 69% 5.0 mph SW8.0 kmh SW 10.0 mph16.1 kmh 30.69 in1039.3 mb 0.00 in0.0 mm 0.00 in0.0 mm 0.00 in0.0 mm
02:18 PM 21.3°F-5.9°C 12.7°F-10.7°C 69% 8.0 mph SW12.9 kmh SW 10.0 mph16.1 kmh 30.69 in1039.3 mb 0.00 in0.0 mm 0.00 in0.0 mm 0.00 in0.0 mm
02:23 PM 21.4°F-5.9°C 13.1°F-10.5°C 70% 6.0 mph SW9.7 kmh SW 10.0 mph16.1 kmh 30.69 in1039.3 mb 0.00 in0.0 mm 0.00 in0.0 mm 0.00 in0.0 mm
02:28 PM 21.9°F-5.6°C 13.6°F-10.2°C 70% 2.0 mph SE3.2 kmh SE 10.0 mph16.1 kmh 30.68 in1038.9 mb 0.00 in0.0 mm 0.00 in0.0 mm 0.00 in0.0 mm
02:33 PM 22.3°F-5.4°C 13.9°F-10.1°C 70% 3.0 mph SSE4.8 kmh SSE 10.0 mph16.1 kmh 30.68 in1038.9 mb 0.00 in0.0 mm 0.00 in0.0 mm 0.00 in0.0 mm
02:38 PM 22.4°F-5.3°C 14.0°F-10.0°C 70% 3.0 mph SSE4.8 kmh SSE 9.0 mph14.5 kmh 30.67 in1038.6 mb 0.00 in0.0 mm 0.00 in0.0 mm 0.00 in0.0 mm
02:43 PM 22.7°F-5.2°C 14.3°F-9.8°C 70% 3.0 mph SW4.8 kmh SW 9.0 mph14.5 kmh 30.67 in1038.6 mb 0.00 in0.0 mm 0.00 in0.0 mm 0.00 in0.0 mm
02:48 PM 22.9°F-5.1°C 14.5°F-9.7°C 70% 3.0 mph WSW4.8 kmh WSW 7.0 mph11.3 kmh 30.67 in1038.6 mb 0.00 in0.0 mm 0.00 in0.0 mm 0.00 in0.0 mm
02:53 PM 23.1°F-4.9°C 14.7°F-9.6°C 70% 5.0 mph SSE8.0 kmh SSE 9.0 mph14.5 kmh 30.66 in1038.3 mb 0.00 in0.0 mm 0.00 in0.0 mm 0.00 in0.0 mm
02:58 PM 23.3°F-4.8°C 14.6°F-9.7°C 69% Calm Calm 9.0 mph14.5 kmh 30.66 in1038.3 mb 0.00 in0.0 mm 0.00 in0.0 mm 0.00 in0.0 mm
03:03 PM 23.6°F-4.7°C 15.2°F-9.3°C 70% 6.0 mph S9.7 kmh S 9.0 mph14.5 kmh 30.66 in1038.3 mb 0.00 in0.0 mm 0.00 in0.0 mm 0.00 in0.0 mm
03:08 PM 23.0°F-5.0°C 13.9°F-10.1°C 68% 6.0 mph SW9.7 kmh SW 9.0 mph14.5 kmh 30.66 in1038.3 mb 0.00 in0.0 mm 0.00 in0.0 mm 0.00 in0.0 mm
03:13 PM 22.1°F-5.5°C 12.7°F-10.7°C 67% 3.0 mph S4.8 kmh S 9.0 mph14.5 kmh 30.66 in1038.3 mb 0.00 in0.0 mm 0.00 in0.0 mm 0.00 in0.0 mm
03:18 PM 21.4°F-5.9°C 12.7°F-10.7°C 69% Calm Calm 9.0 mph14.5 kmh 30.66 in1038.3 mb 0.00 in0.0 mm 0.00 in0.0 mm 0.00 in0.0 mm
03:23 PM 21.2°F-6.0°C 12.9°F-10.6°C 70% 2.0 mph SE3.2 kmh SE 9.0 mph14.5 kmh 30.66 in1038.3 mb 0.00 in0.0 mm 0.00 in0.0 mm 0.00 in0.0 mm
03:28 PM 21.3°F-5.9°C 13.3°F-10.4°C 71% 3.0 mph SSW4.8 kmh SSW 8.0 mph12.9 kmh 30.66 in1038.3 mb 0.00 in0.0 mm 0.00 in0.0 mm 0.00 in0.0 mm
03:33 PM 21.4°F-5.9°C 13.1°F-10.5°C 70% 2.0 mph SSW3.2 kmh SSW 8.0 mph12.9 kmh 30.66 in1038.3 mb 0.00 in0.0 mm 0.00 in0.0 mm 0.00 in0.0 mm
03:38 PM 21.5°F-5.8°C 13.2°F-10.4°C 70% 2.0 mph SSE3.2 kmh SSE 8.0 mph12.9 kmh 30.66 in1038.3 mb 0.00 in0.0 mm 0.00 in0.0 mm 0.00 in0.0 mm
03:43 PM 21.8°F-5.7°C 13.5°F-10.3°C 70% 4.0 mph SE6.4 kmh SE 8.0 mph12.9 kmh 30.66 in1038.3 mb 0.00 in0.0 mm 0.00 in0.0 mm 0.00 in0.0 mm
03:48 PM 22.1°F-5.5°C 13.8°F-10.1°C 70% 3.0 mph SE4.8 kmh SE 8.0 mph12.9 kmh 30.66 in1038.3 mb 0.00 in0.0 mm 0.00 in0.0 mm 0.00 in0.0 mm
03:53 PM 22.2°F-5.4°C 13.8°F-10.1°C 70% Calm Calm 8.0 mph12.9 kmh 30.66 in1038.3 mb 0.00 in0.0 mm 0.00 in0.0 mm 0.00 in0.0 mm
03:58 PM 22.2°F-5.4°C 13.8°F-10.1°C 70% 6.0 mph S9.7 kmh S 8.0 mph12.9 kmh 30.66 in1038.3 mb 0.00 in0.0 mm 0.00 in0.0 mm 0.00 in0.0 mm
04:03 PM 21.9°F-5.6°C 13.2°F-10.4°C 69% Calm Calm -- 30.65 in1037.9 mb 0.00 in0.0 mm 0.00 in0.0 mm 0.00 in0.0 mm
04:08 PM 21.3°F-5.9°C 12.7°F-10.7°C 69% 4.0 mph SSE6.4 kmh SSE 6.0 mph9.7 kmh 30.65 in1037.9 mb 0.00 in0.0 mm 0.00 in0.0 mm 0.00 in0.0 mm
04:13 PM 20.7°F-6.3°C 11.7°F-11.3°C 68% 4.0 mph SW6.4 kmh SW 6.0 mph9.7 kmh 30.65 in1037.9 mb 0.00 in0.0 mm 0.00 in0.0 mm 0.00 in0.0 mm
04:18 PM 19.8°F-6.8°C 10.9°F-11.7°C 68% 3.0 mph S4.8 kmh S 8.0 mph12.9 kmh 30.65 in1037.9 mb 0.00 in0.0 mm 0.00 in0.0 mm 0.00 in0.0 mm
04:23 PM 19.1°F-7.2°C 10.5°F-11.9°C 69% 4.0 mph SW6.4 kmh SW 9.0 mph14.5 kmh 30.65 in1037.9 mb 0.00 in0.0 mm 0.00 in0.0 mm 0.00 in0.0 mm
04:28 PM 18.6°F-7.4°C 10.4°F-12.0°C 70% 5.0 mph SW8.0 kmh SW 9.0 mph14.5 kmh 30.65 in1037.9 mb 0.00 in0.0 mm 0.00 in0.0 mm 0.00 in0.0 mm
04:33 PM 18.3°F-7.6°C 9.8°F-12.3°C 69% 5.0 mph SW8.0 kmh SW 9.0 mph14.5 kmh 30.65 in1037.9 mb 0.00 in0.0 mm 0.00 in0.0 mm 0.00 in0.0 mm
04:38 PM 18.1°F-7.7°C 9.9°F-12.3°C 70% 6.0 mph SSW9.7 kmh SSW 9.0 mph14.5 kmh 30.65 in1037.9 mb 0.00 in0.0 mm 0.00 in0.0 mm 0.00 in0.0 mm
04:43 PM 18.0°F-7.8°C 9.8°F-12.3°C 70% 2.0 mph SW3.2 kmh SW 6.0 mph9.7 kmh 30.65 in1037.9 mb 0.00 in0.0 mm 0.00 in0.0 mm 0.00 in0.0 mm
04:48 PM 17.9°F-7.8°C 9.7°F-12.4°C 70% 4.0 mph SSW6.4 kmh SSW 8.0 mph12.9 kmh 30.65 in1037.9 mb 0.00 in0.0 mm 0.00 in0.0 mm 0.00 in0.0 mm
04:53 PM 17.7°F-7.9°C 9.5°F-12.5°C 70% 6.0 mph SSW9.7 kmh SSW 10.0 mph16.1 kmh 30.65 in1037.9 mb 0.00 in0.0 mm 0.00 in0.0 mm 0.00 in0.0 mm
04:58 PM 17.6°F-8.0°C 9.4°F-12.6°C 70% 6.0 mph SSW9.7 kmh SSW 10.0 mph16.1 kmh 30.64 in1037.6 mb 0.00 in0.0 mm 0.00 in0.0 mm 0.00 in0.0 mm
05:03 PM 17.5°F-8.1°C 9.7°F-12.4°C 71% 4.0 mph S6.4 kmh S 10.0 mph16.1 kmh 30.64 in1037.6 mb 0.00 in0.0 mm 0.00 in0.0 mm 0.00 in0.0 mm
05:08 PM 17.4°F-8.1°C 9.6°F-12.4°C 71% 4.0 mph S6.4 kmh S 10.0 mph16.1 kmh 30.64 in1037.6 mb 0.00 in0.0 mm 0.00 in0.0 mm 0.00 in0.0 mm
05:13 PM 17.3°F-8.2°C 9.5°F-12.5°C 71% 4.0 mph S6.4 kmh S 9.0 mph14.5 kmh 30.64 in1037.6 mb 0.00 in0.0 mm 0.00 in0.0 mm 0.00 in0.0 mm
05:18 PM 17.0°F-8.3°C 9.2°F-12.7°C 71% 4.0 mph SSW6.4 kmh SSW 9.0 mph14.5 kmh 30.64 in1037.6 mb 0.00 in0.0 mm 0.00 in0.0 mm 0.00 in0.0 mm
05:23 PM 16.8°F-8.4°C 9.0°F-12.8°C 71% 3.0 mph SSW4.8 kmh SSW 7.0 mph11.3 kmh 30.64 in1037.6 mb 0.00 in0.0 mm 0.00 in0.0 mm 0.00 in0.0 mm
05:28 PM 16.5°F-8.6°C 8.7°F-12.9°C 71% 4.0 mph S6.4 kmh S 7.0 mph11.3 kmh 30.64 in1037.6 mb 0.00 in0.0 mm 0.00 in0.0 mm 0.00 in0.0 mm
05:33 PM 16.2°F-8.8°C 8.4°F-13.1°C 71% 5.0 mph S8.0 kmh S 7.0 mph11.3 kmh 30.64 in1037.6 mb 0.00 in0.0 mm 0.00 in0.0 mm 0.00 in0.0 mm
05:38 PM 16.0°F-8.9°C 8.2°F-13.2°C 71% 6.0 mph SSE9.7 kmh SSE 7.0 mph11.3 kmh 30.64 in1037.6 mb 0.00 in0.0 mm 0.00 in0.0 mm 0.00 in0.0 mm
05:43 PM 15.9°F-8.9°C 8.1°F-13.3°C 71% 3.0 mph SSW4.8 kmh SSW 7.0 mph11.3 kmh 30.63 in1037.3 mb 0.00 in0.0 mm 0.00 in0.0 mm 0.00 in0.0 mm
05:48 PM 15.8°F-9.0°C 8.0°F-13.3°C 71% 2.0 mph SSE3.2 kmh SSE 6.0 mph9.7 kmh 30.63 in1037.3 mb 0.00 in0.0 mm 0.00 in0.0 mm 0.00 in0.0 mm
05:53 PM 15.7°F-9.1°C 7.9°F-13.4°C 71% 3.0 mph S4.8 kmh S 6.0 mph9.7 kmh 30.63 in1037.3 mb 0.00 in0.0 mm 0.00 in0.0 mm 0.00 in0.0 mm
05:58 PM 15.6°F-9.1°C 7.8°F-13.4°C 71% 2.0 mph SSW3.2 kmh SSW 7.0 mph11.3 kmh 30.63 in1037.3 mb 0.00 in0.0 mm 0.00 in0.0 mm 0.00 in0.0 mm
06:03 PM 15.5°F-9.2°C 7.8°F-13.4°C 71% 2.0 mph S3.2 kmh S 7.0 mph11.3 kmh 30.63 in1037.3 mb 0.00 in0.0 mm 0.00 in0.0 mm 0.00 in0.0 mm
06:08 PM 15.2°F-9.3°C 7.8°F-13.4°C 72% 3.0 mph S4.8 kmh S 7.0 mph11.3 kmh 30.63 in1037.3 mb 0.00 in0.0 mm 0.00 in0.0 mm 0.00 in0.0 mm
06:13 PM 15.0°F-9.4°C 7.6°F-13.6°C 72% 2.0 mph SSE3.2 kmh SSE 7.0 mph11.3 kmh 30.63 in1037.3 mb 0.00 in0.0 mm 0.00 in0.0 mm 0.00 in0.0 mm
06:18 PM 14.9°F-9.5°C 7.5°F-13.6°C 72% 1.0 mph S1.6 kmh S 4.0 mph6.4 kmh 30.63 in1037.3 mb 0.00 in0.0 mm 0.00 in0.0 mm 0.00 in0.0 mm
06:23 PM 14.7°F-9.6°C 7.3°F-13.7°C 72% 1.0 mph SSE1.6 kmh SSE 4.0 mph6.4 kmh 30.64 in1037.6 mb 0.00 in0.0 mm 0.00 in0.0 mm 0.00 in0.0 mm
06:28 PM 14.5°F-9.7°C 7.1°F-13.8°C 72% 1.0 mph SSE1.6 kmh SSE 3.0 mph4.8 kmh 30.64 in1037.6 mb 0.00 in0.0 mm 0.00 in0.0 mm 0.00 in0.0 mm
06:33 PM 14.4°F-9.8°C 7.3°F-13.7°C 73% 1.0 mph SE1.6 kmh SE 3.0 mph4.8 kmh 30.64 in1037.6 mb 0.00 in0.0 mm 0.00 in0.0 mm 0.00 in0.0 mm
06:38 PM 14.2°F-9.9°C 7.1°F-13.8°C 73% 1.0 mph SE1.6 kmh SE 2.0 mph3.2 kmh 30.64 in1037.6 mb 0.00 in0.0 mm 0.00 in0.0 mm 0.00 in0.0 mm
06:43 PM 13.9°F-10.1°C 6.8°F-14.0°C 73% 2.0 mph SSE3.2 kmh SSE 3.0 mph4.8 kmh 30.64 in1037.6 mb 0.00 in0.0 mm 0.00 in0.0 mm 0.00 in0.0 mm
06:48 PM 13.8°F-10.1°C 7.1°F-13.8°C 74% Calm Calm 3.0 mph4.8 kmh 30.64 in1037.6 mb 0.00 in0.0 mm 0.00 in0.0 mm 0.00 in0.0 mm
06:53 PM 13.6°F-10.2°C 6.9°F-13.9°C 74% 1.0 mph SE1.6 kmh SE 3.0 mph4.8 kmh 30.63 in1037.3 mb 0.00 in0.0 mm 0.00 in0.0 mm 0.00 in0.0 mm
06:58 PM 13.4°F-10.3°C 6.7°F-14.1°C 74% 1.0 mph SE1.6 kmh SE 3.0 mph4.8 kmh 30.63 in1037.3 mb 0.00 in0.0 mm 0.00 in0.0 mm 0.00 in0.0 mm
07:03 PM 13.1°F-10.5°C 6.7°F-14.1°C 75% 1.0 mph SSE1.6 kmh SSE 3.0 mph4.8 kmh 30.63 in1037.3 mb 0.00 in0.0 mm 0.00 in0.0 mm 0.00 in0.0 mm
07:08 PM 12.9°F-10.6°C 6.5°F-14.2°C 75% 1.0 mph SE1.6 kmh SE 3.0 mph4.8 kmh 30.64 in1037.6 mb 0.00 in0.0 mm 0.00 in0.0 mm 0.00 in0.0 mm
07:13 PM 12.6°F-10.8°C 6.2°F-14.3°C 75% 1.0 mph SSE1.6 kmh SSE 2.0 mph3.2 kmh 30.63 in1037.3 mb 0.00 in0.0 mm 0.00 in0.0 mm 0.00 in0.0 mm
07:18 PM 12.4°F-10.9°C 6.0°F-14.4°C 75% 1.0 mph SE1.6 kmh SE 2.0 mph3.2 kmh 30.63 in1037.3 mb 0.00 in0.0 mm 0.00 in0.0 mm 0.00 in0.0 mm
07:23 PM 11.9°F-11.2°C 5.5°F-14.7°C 75% Calm Calm 2.0 mph3.2 kmh 30.63 in1037.3 mb 0.00 in0.0 mm 0.00 in0.0 mm 0.00 in0.0 mm
07:28 PM 11.6°F-11.3°C 5.2°F-14.9°C 75% 2.0 mph SSE3.2 kmh SSE 2.0 mph3.2 kmh 30.63 in1037.3 mb 0.00 in0.0 mm 0.00 in0.0 mm 0.00 in0.0 mm
07:33 PM 11.3°F-11.5°C 4.9°F-15.1°C 75% 1.0 mph SSE1.6 kmh SSE 2.0 mph3.2 kmh 30.63 in1037.3 mb 0.00 in0.0 mm 0.00 in0.0 mm 0.00 in0.0 mm
07:38 PM 11.1°F-11.6°C 4.7°F-15.2°C 75% Calm Calm 2.0 mph3.2 kmh 30.63 in1037.3 mb 0.00 in0.0 mm 0.00 in0.0 mm 0.00 in0.0 mm
07:43 PM 10.9°F-11.7°C 4.6°F-15.2°C 75% Calm Calm 3.0 mph4.8 kmh 30.63 in1037.3 mb 0.00 in0.0 mm 0.00 in0.0 mm 0.00 in0.0 mm
07:48 PM 10.8°F-11.8°C 4.5°F-15.3°C 75% 1.0 mph SSE1.6 kmh SSE 3.0 mph4.8 kmh 30.63 in1037.3 mb 0.00 in0.0 mm 0.00 in0.0 mm 0.00 in0.0 mm
07:53 PM 10.5°F-11.9°C 4.2°F-15.4°C 75% 1.0 mph SSE1.6 kmh SSE 3.0 mph4.8 kmh 30.62 in1036.9 mb 0.00 in0.0 mm 0.00 in0.0 mm 0.00 in0.0 mm
07:58 PM 10.3°F-12.1°C 4.3°F-15.4°C 76% 1.0 mph SSE1.6 kmh SSE 3.0 mph4.8 kmh 30.62 in1036.9 mb 0.00 in0.0 mm 0.00 in0.0 mm 0.00 in0.0 mm
08:03 PM 10.1°F-12.2°C 3.8°F-15.7°C 75% 2.0 mph SSE3.2 kmh SSE 3.0 mph4.8 kmh 30.63 in1037.3 mb 0.00 in0.0 mm 0.00 in0.0 mm 0.00 in0.0 mm
08:08 PM 9.8°F-12.3°C 3.5°F-15.8°C 75% 2.0 mph SSE3.2 kmh SSE 3.0 mph4.8 kmh 30.63 in1037.3 mb 0.00 in0.0 mm 0.00 in0.0 mm 0.00 in0.0 mm
08:13 PM 9.7°F-12.4°C 3.7°F-15.7°C 76% 2.0 mph S3.2 kmh S 3.0 mph4.8 kmh 30.62 in1036.9 mb 0.00 in0.0 mm 0.00 in0.0 mm 0.00 in0.0 mm
08:18 PM 9.6°F-12.4°C 3.6°F-15.8°C 76% 2.0 mph S3.2 kmh S 3.0 mph4.8 kmh 30.63 in1037.3 mb 0.00 in0.0 mm 0.00 in0.0 mm 0.00 in0.0 mm
08:23 PM 9.5°F-12.5°C 3.5°F-15.8°C 76% 1.0 mph S1.6 kmh S 3.0 mph4.8 kmh 30.63 in1037.3 mb 0.00 in0.0 mm 0.00 in0.0 mm 0.00 in0.0 mm
08:28 PM 9.5°F-12.5°C 3.5°F-15.8°C 76% 1.0 mph S1.6 kmh S 3.0 mph4.8 kmh 30.62 in1036.9 mb 0.00 in0.0 mm 0.00 in0.0 mm 0.00 in0.0 mm
08:33 PM 9.5°F-12.5°C 3.5°F-15.8°C 76% 3.0 mph S4.8 kmh S 3.0 mph4.8 kmh 30.62 in1036.9 mb 0.00 in0.0 mm 0.00 in0.0 mm 0.00 in0.0 mm
08:38 PM 9.4°F-12.6°C 3.4°F-15.9°C 76% 2.0 mph S3.2 kmh S 4.0 mph6.4 kmh 30.62 in1036.9 mb 0.00 in0.0 mm 0.00 in0.0 mm 0.00 in0.0 mm
08:43 PM 9.3°F-12.6°C 3.3°F-15.9°C 76% 2.0 mph SSE3.2 kmh SSE 4.0 mph6.4 kmh 30.62 in1036.9 mb 0.00 in0.0 mm 0.00 in0.0 mm 0.00 in0.0 mm
08:48 PM 9.2°F-12.7°C 2.9°F-16.2°C 75% 1.0 mph SSE1.6 kmh SSE 4.0 mph6.4 kmh 30.62 in1036.9 mb 0.00 in0.0 mm 0.00 in0.0 mm 0.00 in0.0 mm
08:53 PM 9.0°F-12.8°C 2.7°F-16.3°C 75% 1.0 mph SSE1.6 kmh SSE 4.0 mph6.4 kmh 30.62 in1036.9 mb 0.00 in0.0 mm 0.00 in0.0 mm 0.00 in0.0 mm
08:58 PM 8.8°F-12.9°C 2.8°F-16.2°C 76% 1.0 mph SSE1.6 kmh SSE 4.0 mph6.4 kmh 30.62 in1036.9 mb 0.00 in0.0 mm 0.00 in0.0 mm 0.00 in0.0 mm
09:03 PM 8.7°F-12.9°C 2.7°F-16.3°C 76% 2.0 mph SSE3.2 kmh SSE 4.0 mph6.4 kmh 30.62 in1036.9 mb 0.00 in0.0 mm 0.00 in0.0 mm 0.00 in0.0 mm
09:08 PM 8.5°F-13.1°C 2.5°F-16.4°C 76% 3.0 mph SSE4.8 kmh SSE 3.0 mph4.8 kmh 30.61 in1036.6 mb 0.00 in0.0 mm 0.00 in0.0 mm 0.00 in0.0 mm
09:13 PM 8.5°F-13.1°C 2.5°F-16.4°C 76% 2.0 mph SSE3.2 kmh SSE 3.0 mph4.8 kmh 30.61 in1036.6 mb 0.00 in0.0 mm 0.00 in0.0 mm 0.00 in0.0 mm
09:18 PM 8.7°F-12.9°C 2.7°F-16.3°C 76% 2.0 mph SSE3.2 kmh SSE 3.0 mph4.8 kmh 30.61 in1036.6 mb 0.00 in0.0 mm 0.00 in0.0 mm 0.00 in0.0 mm
09:23 PM 8.9°F-12.8°C 2.9°F-16.2°C 76% 3.0 mph SE4.8 kmh SE 4.0 mph6.4 kmh 30.61 in1036.6 mb 0.00 in0.0 mm 0.00 in0.0 mm 0.00 in0.0 mm
09:28 PM 9.1°F-12.7°C 3.1°F-16.1°C 76% 2.0 mph SE3.2 kmh SE 4.0 mph6.4 kmh 30.61 in1036.6 mb 0.00 in0.0 mm 0.00 in0.0 mm 0.00 in0.0 mm
09:33 PM 9.2°F-12.7°C 3.2°F-16.0°C 76% 3.0 mph SE4.8 kmh SE 4.0 mph6.4 kmh 30.61 in1036.6 mb 0.00 in0.0 mm 0.00 in0.0 mm 0.00 in0.0 mm
09:38 PM 9.2°F-12.7°C 3.2°F-16.0°C 76% 2.0 mph SE3.2 kmh SE 5.0 mph8.0 kmh 30.61 in1036.6 mb 0.00 in0.0 mm 0.00 in0.0 mm 0.00 in0.0 mm
09:43 PM 9.3°F-12.6°C 3.3°F-15.9°C 76% 2.0 mph SE3.2 kmh SE 5.0 mph8.0 kmh 30.61 in1036.6 mb 0.00 in0.0 mm 0.00 in0.0 mm 0.00 in0.0 mm
09:48 PM 9.3°F-12.6°C 3.3°F-15.9°C 76% 2.0 mph SE3.2 kmh SE 5.0 mph8.0 kmh 30.61 in1036.6 mb 0.00 in0.0 mm 0.00 in0.0 mm 0.00 in0.0 mm
09:53 PM 9.2°F-12.7°C 3.2°F-16.0°C 76% 1.0 mph SE1.6 kmh SE 5.0 mph8.0 kmh 30.61 in1036.6 mb 0.00 in0.0 mm 0.00 in0.0 mm 0.00 in0.0 mm
09:58 PM 9.2°F-12.7°C 3.2°F-16.0°C 76% 2.0 mph SE3.2 kmh SE 4.0 mph6.4 kmh 30.61 in1036.6 mb 0.00 in0.0 mm 0.00 in0.0 mm 0.00 in0.0 mm
10:03 PM 9.2°F-12.7°C 3.2°F-16.0°C 76% 2.0 mph SE3.2 kmh SE 4.0 mph6.4 kmh 30.61 in1036.6 mb 0.00 in0.0 mm 0.00 in0.0 mm 0.00 in0.0 mm
10:08 PM 9.3°F-12.6°C 3.3°F-15.9°C 76% 2.0 mph SE3.2 kmh SE 3.0 mph4.8 kmh 30.61 in1036.6 mb 0.00 in0.0 mm 0.00 in0.0 mm 0.00 in0.0 mm
10:13 PM 9.3°F-12.6°C 3.3°F-15.9°C 76% 3.0 mph SE4.8 kmh SE 4.0 mph6.4 kmh 30.61 in1036.6 mb 0.00 in0.0 mm 0.00 in0.0 mm 0.00 in0.0 mm
10:18 PM 9.3°F-12.6°C 3.3°F-15.9°C 76% 3.0 mph SE4.8 kmh SE 4.0 mph6.4 kmh 30.61 in1036.6 mb 0.00 in0.0 mm 0.00 in0.0 mm 0.00 in0.0 mm
10:23 PM 9.3°F-12.6°C 3.3°F-15.9°C 76% 2.0 mph SE3.2 kmh SE 4.0 mph6.4 kmh 30.61 in1036.6 mb 0.00 in0.0 mm 0.00 in0.0 mm 0.00 in0.0 mm
10:28 PM 9.3°F-12.6°C 3.3°F-15.9°C 76% 2.0 mph SE3.2 kmh SE 4.0 mph6.4 kmh 30.61 in1036.6 mb 0.00 in0.0 mm 0.00 in0.0 mm 0.00 in0.0 mm
10:33 PM 9.3°F-12.6°C 3.3°F-15.9°C 76% 1.0 mph SE1.6 kmh SE 4.0 mph6.4 kmh 30.60 in1036.2 mb 0.00 in0.0 mm 0.00 in0.0 mm 0.00 in0.0 mm
10:38 PM 9.4°F-12.6°C 3.4°F-15.9°C 76% 3.0 mph SE4.8 kmh SE 4.0 mph6.4 kmh 30.60 in1036.2 mb 0.00 in0.0 mm 0.00 in0.0 mm 0.00 in0.0 mm
10:43 PM 9.3°F-12.6°C 3.3°F-15.9°C 76% 2.0 mph SE3.2 kmh SE 4.0 mph6.4 kmh 30.60 in1036.2 mb 0.00 in0.0 mm 0.00 in0.0 mm 0.00 in0.0 mm
10:48 PM 9.2°F-12.7°C 3.2°F-16.0°C 76% 2.0 mph SE3.2 kmh SE 4.0 mph6.4 kmh 30.60 in1036.2 mb 0.00 in0.0 mm 0.00 in0.0 mm 0.00 in0.0 mm
10:53 PM 9.1°F-12.7°C 3.1°F-16.1°C 76% 3.0 mph SE4.8 kmh SE 4.0 mph6.4 kmh 30.59 in1035.9 mb 0.00 in0.0 mm 0.00 in0.0 mm 0.00 in0.0 mm
10:58 PM 9.0°F-12.8°C 3.0°F-16.1°C 76% 3.0 mph ESE4.8 kmh ESE 5.0 mph8.0 kmh 30.59 in1035.9 mb 0.00 in0.0 mm 0.00 in0.0 mm 0.00 in0.0 mm
11:03 PM 9.0°F-12.8°C 3.0°F-16.1°C 76% 3.0 mph ESE4.8 kmh ESE 5.0 mph8.0 kmh 30.59 in1035.9 mb 0.00 in0.0 mm 0.00 in0.0 mm 0.00 in0.0 mm
11:08 PM 8.9°F-12.8°C 2.9°F-16.2°C 76% 3.0 mph ESE4.8 kmh ESE 5.0 mph8.0 kmh 30.59 in1035.9 mb 0.00 in0.0 mm 0.00 in0.0 mm 0.00 in0.0 mm
11:13 PM 9.0°F-12.8°C 3.0°F-16.1°C 76% 2.0 mph ESE3.2 kmh ESE 5.0 mph8.0 kmh 30.58 in1035.6 mb 0.00 in0.0 mm 0.00 in0.0 mm 0.00 in0.0 mm
11:18 PM 9.0°F-12.8°C 3.0°F-16.1°C 76% 3.0 mph ESE4.8 kmh ESE 4.0 mph6.4 kmh 30.58 in1035.6 mb 0.00 in0.0 mm 0.00 in0.0 mm 0.00 in0.0 mm
11:23 PM 9.1°F-12.7°C 3.1°F-16.1°C 76% 2.0 mph ESE3.2 kmh ESE 4.0 mph6.4 kmh 30.58 in1035.6 mb 0.00 in0.0 mm 0.00 in0.0 mm 0.00 in0.0 mm
11:28 PM 9.0°F-12.8°C 3.0°F-16.1°C 76% 2.0 mph ESE3.2 kmh ESE 5.0 mph8.0 kmh 30.58 in1035.6 mb 0.00 in0.0 mm 0.00 in0.0 mm 0.00 in0.0 mm
11:33 PM 9.0°F-12.8°C 3.3°F-15.9°C 77% 2.0 mph ESE3.2 kmh ESE 5.0 mph8.0 kmh 30.58 in1035.6 mb 0.00 in0.0 mm 0.00 in0.0 mm 0.00 in0.0 mm
11:38 PM 9.1°F-12.7°C 3.4°F-15.9°C 77% 3.0 mph ESE4.8 kmh ESE 5.0 mph8.0 kmh 30.58 in1035.6 mb 0.00 in0.0 mm 0.00 in0.0 mm 0.00 in0.0 mm
11:43 PM 9.1°F-12.7°C 3.4°F-15.9°C 77% 2.0 mph SE3.2 kmh SE 5.0 mph8.0 kmh 30.58 in1035.6 mb 0.00 in0.0 mm 0.00 in0.0 mm 0.00 in0.0 mm
11:48 PM 9.3°F-12.6°C 3.6°F-15.8°C 77% 3.0 mph SE4.8 kmh SE 6.0 mph9.7 kmh 30.57 in1035.2 mb 0.00 in0.0 mm 0.00 in0.0 mm 0.00 in0.0 mm
11:53 PM 9.5°F-12.5°C 3.8°F-15.7°C 77% 3.0 mph SE4.8 kmh SE 7.0 mph11.3 kmh 30.57 in1035.2 mb 0.00 in0.0 mm 0.00 in0.0 mm 0.00 in0.0 mm
11:58 PM 9.7°F-12.4°C 4.0°F-15.6°C 77% 2.0 mph SE3.2 kmh SE 7.0 mph11.3 kmh 30.57 in1035.2 mb 0.00 in0.0 mm 0.00 in0.0 mm 0.00 in0.0 mm